Andover, South Dakota
Current Conditions -  °F | °C
As of 11:53 PM on Tuesday 21 Oct 2014 (Local Time) from KABR Reporting Station
Clear Clear  
Wind Chill: 64°   Ceiling: Unl
Heat Index: 64°   Visibility: 10mi
Dew Point: 43°   Wind: 22mph
Humidity: 46%   Direction: 160°SSE
Pressure: 29.85"   Gusts: 36mph
Location:  45.41°N, 97.9°W
Report Text: KABR 220453Z AUTO 16019G31KT 10SM CLR 18/06 A2985 RMK AO2 PK WND 16031/0442 SLP102 T01780061
Loading
Personal Weather Stations






























Interactive Weather Map
Tropical Storm Tracking
New forecast layout! Learn more

10-Day Weather Forecast

Advertisements
Track Severe Weather on mobile